Time;durP1;ratioP1;P1;durP2;ratioP2;P2;SDS_P1;SDS_P2;PMS_P1;PMS_P2;Temp;Humidity;BMP_temperature;BMP_pressure;BME280_temperature;BME280_humidity;BME280_pressure;Samples;Min_cycle;Max_cycle;Signal;HPM_P1;HPM_P2
2022/10/17 00:00:33;;;;;;;;;;;11.90;62.50;;;;;;5044916;28;88359;-36
2022/10/17 00:02:59;;;;;;;;;;;11.90;62.50;;;;;;5045206;28;87108;-36
2022/10/17 00:05:24;;;;;;;;;;;11.90;62.40;;;;;;5048047;28;87418;-36
2022/10/17 00:07:50;;;;;;;;;;;11.90;62.60;;;;;;5045217;28;87342;-36
2022/10/17 00:10:15;;;;;;;;;;;11.90;62.40;;;;;;5045179;28;87433;-36
2022/10/17 00:12:41;;;;;;;;;;;11.80;62.50;;;;;;5044747;28;87097;-36
2022/10/17 00:15:07;;;;;;;;;;;11.90;62.40;;;;;;5045608;28;86381;-36
2022/10/17 00:17:33;;;;;;;;;;;11.90;62.50;;;;;;5044885;27;87002;-36
2022/10/17 00:19:59;;;;;;;;;;;11.80;62.30;;;;;;5044667;28;88057;-36
2022/10/17 00:22:25;;;;;;;;;;;11.80;62.40;;;;;;5044554;28;88007;-36
2022/10/17 00:24:50;;;;;;;;;;;11.80;62.50;;;;;;5044636;28;88382;-36
2022/10/17 00:27:16;;;;;;;;;;;11.80;62.40;;;;;;5047205;28;87813;-36
2022/10/17 00:29:41;;;;;;;;;;;11.80;62.30;;;;;;5044936;28;87787;-36
2022/10/17 00:32:07;;;;;;;;;;;11.80;62.50;;;;;;5044324;28;86965;-36
2022/10/17 00:34:32;;;;;;;;;;;11.70;62.30;;;;;;5044703;28;87063;-36
2022/10/17 00:36:58;;;;;;;;;;;11.80;62.30;;;;;;5044624;27;87048;-36
2022/10/17 00:39:23;;;;;;;;;;;11.70;62.30;;;;;;5044222;28;86445;-36
2022/10/17 00:41:49;;;;;;;;;;;11.80;62.30;;;;;;5044680;28;87007;-36
2022/10/17 00:44:30;;;;;;;;;;;11.70;62.20;;;;;;5044888;27;87864;-36
2022/10/17 00:46:56;;;;;;;;;;;11.70;62.50;;;;;;5043647;28;88910;-36
2022/10/17 00:49:23;;;;;;;;;;;11.70;62.30;;;;;;5047420;28;87097;-36
2022/10/17 00:51:51;;;;;;;;;;;11.70;62.30;;;;;;5044239;28;88032;-36
2022/10/17 00:54:19;;;;;;;;;;;11.70;62.20;;;;;;5044058;28;87126;-36
2022/10/17 00:56:45;;;;;;;;;;;11.60;62.20;;;;;;5044115;27;86889;-36
2022/10/17 00:59:12;;;;;;;;;;;11.60;62.20;;;;;;5044165;28;87998;-36
2022/10/17 01:01:39;;;;;;;;;;;11.60;62.30;;;;;;5044421;28;87146;-36
2022/10/17 01:04:05;;;;;;;;;;;11.60;62.20;;;;;;5044737;27;86639;-37
2022/10/17 01:06:30;;;;;;;;;;;11.60;62.20;;;;;;5043938;28;87102;-37
2022/10/17 01:08:56;;;;;;;;;;;11.60;62.30;;;;;;5044069;28;87219;-36
2022/10/17 01:11:27;;;;;;;;;;;11.50;62.20;;;;;;5046021;28;88018;-36
2022/10/17 01:14:00;;;;;;;;;;;11.60;62.30;;;;;;5044394;28;87028;-37
2022/10/17 01:16:35;;;;;;;;;;;11.50;62.20;;;;;;5043992;28;87514;-36
2022/10/17 01:19:29;;;;;;;;;;;11.60;62.20;;;;;;5043877;28;87349;-36
2022/10/17 01:21:59;;;;;;;;;;;11.50;62.20;;;;;;5044196;28;86955;-36
2022/10/17 01:24:35;;;;;;;;;;;11.50;62.20;;;;;;5043537;28;87630;-36
2022/10/17 01:27:10;;;;;;;;;;;11.50;62.20;;;;;;5043891;28;88157;-36
2022/10/17 01:29:35;;;;;;;;;;;11.50;62.20;;;;;;5044494;28;86235;-36
2022/10/17 01:32:07;;;;;;;;;;;11.50;62.30;;;;;;5046450;27;86930;-36
2022/10/17 01:34:53;;;;;;;;;;;11.50;62.20;;;;;;5043916;28;87000;-36
2022/10/17 01:37:39;;;;;;;;;;;11.50;62.20;;;;;;5042760;28;87997;-37
2022/10/17 01:40:15;;;;;;;;;;;11.50;62.30;;;;;;5035005;28;88303;-36
2022/10/17 01:42:40;;;;;;;;;;;11.40;62.20;;;;;;5043701;28;87129;-36
2022/10/17 01:45:08;;;;;;;;;;;11.40;62.30;;;;;;5043518;28;87472;-36
2022/10/17 01:47:34;;;;;;;;;;;11.40;62.20;;;;;;5043029;28;87849;-37
2022/10/17 01:50:03;;;;;;;;;;;11.40;62.10;;;;;;5043749;28;87016;-35
2022/10/17 01:52:41;;;;;;;;;;;11.40;62.20;;;;;;5043506;27;86921;-36
2022/10/17 01:55:10;;;;;;;;;;;11.40;62.10;;;;;;5046077;28;87535;-37
2022/10/17 01:57:44;;;;;;;;;;;11.30;62.10;;;;;;5043374;27;86976;-36
2022/10/17 02:00:13;;;;;;;;;;;11.40;62.20;;;;;;5042938;28;88198;-36
2022/10/17 02:02:39;;;;;;;;;;;11.30;62.10;;;;;;5042769;28;88052;-36
2022/10/17 02:05:05;;;;;;;;;;;11.30;62.00;;;;;;5043243;27;88329;-36
2022/10/17 02:07:31;;;;;;;;;;;11.30;62.10;;;;;;5042819;28;87992;-36
2022/10/17 02:09:56;;;;;;;;;;;11.30;62.10;;;;;;5043478;28;87177;-36
2022/10/17 02:12:31;;;;;;;;;;;11.30;62.10;;;;;;5043340;28;87045;-36
2022/10/17 02:15:19;;;;;;;;;;;11.30;62.10;;;;;;5043001;28;88442;-36
2022/10/17 02:17:59;;;;;;;;;;;11.30;62.00;;;;;;5039553;28;87172;-36
2022/10/17 02:20:30;;;;;;;;;;;11.20;61.90;;;;;;5043527;28;86625;-36
2022/10/17 02:23:06;;;;;;;;;;;11.20;62.00;;;;;;5042617;28;87424;-36
2022/10/17 02:25:44;;;;;;;;;;;11.20;62.10;;;;;;5043302;28;87406;-36
2022/10/17 02:28:15;;;;;;;;;;;11.20;62.00;;;;;;5041987;28;88112;-36
2022/10/17 02:30:49;;;;;;;;;;;11.20;62.00;;;;;;5042994;28;86988;-36
2022/10/17 02:33:20;;;;;;;;;;;11.20;62.00;;;;;;5043144;27;87407;-36
2022/10/17 02:35:48;;;;;;;;;;;11.20;62.10;;;;;;5042459;28;88651;-36
2022/10/17 02:38:13;;;;;;;;;;;11.20;62.00;;;;;;5042694;28;87112;-36
2022/10/17 02:40:39;;;;;;;;;;;11.10;61.90;;;;;;5045598;27;86934;-36
2022/10/17 02:43:05;;;;;;;;;;;11.10;62.00;;;;;;5042899;28;86897;-36
2022/10/17 02:45:34;;;;;;;;;;;11.10;62.10;;;;;;5043327;28;87596;-36
2022/10/17 02:48:13;;;;;;;;;;;11.10;62.10;;;;;;5042127;28;88094;-36
2022/10/17 02:50:45;;;;;;;;;;;11.00;62.00;;;;;;5042465;28;87097;-36
2022/10/17 02:53:14;;;;;;;;;;;11.10;62.10;;;;;;5042143;27;87792;-36
2022/10/17 02:55:47;;;;;;;;;;;11.00;62.00;;;;;;5042046;28;88139;-36
2022/10/17 02:58:16;;;;;;;;;;;11.10;62.00;;;;;;5042490;28;87137;-36
2022/10/17 03:00:42;;;;;;;;;;;11.00;62.00;;;;;;5042960;28;87134;-35
2022/10/17 03:03:18;;;;;;;;;;;11.00;62.00;;;;;;5048978;28;88033;-37
2022/10/17 03:05:43;;;;;;;;;;;11.00;62.00;;;;;;5046273;28;87404;-36
2022/10/17 03:08:10;;;;;;;;;;;11.00;61.90;;;;;;5045856;28;88208;-36
2022/10/17 03:10:36;;;;;;;;;;;11.00;62.00;;;;;;5046584;28;86261;-36
2022/10/17 03:13:01;;;;;;;;;;;10.90;61.90;;;;;;5046233;28;86990;-36
2022/10/17 03:15:26;;;;;;;;;;;10.90;62.00;;;;;;5045688;28;88156;-37
2022/10/17 03:17:52;;;;;;;;;;;10.90;62.00;;;;;;5045244;28;88049;-36
2022/10/17 03:20:17;;;;;;;;;;;10.90;62.10;;;;;;5046171;28;88456;-36
2022/10/17 03:22:43;;;;;;;;;;;10.90;62.00;;;;;;5045695;28;88449;-36
2022/10/17 03:25:08;;;;;;;;;;;10.90;62.10;;;;;;5048551;28;86842;-36
2022/10/17 03:27:34;;;;;;;;;;;10.90;62.00;;;;;;5045545;28;87274;-36
2022/10/17 03:29:59;;;;;;;;;;;10.90;61.90;;;;;;5045727;28;87142;-36
2022/10/17 03:32:25;;;;;;;;;;;10.80;61.90;;;;;;5045881;28;87458;-36
2022/10/17 03:34:50;;;;;;;;;;;10.80;61.80;;;;;;5045949;28;87464;-36
2022/10/17 03:37:16;;;;;;;;;;;10.80;61.80;;;;;;5045578;28;87413;-36
2022/10/17 03:39:41;;;;;;;;;;;10.80;61.90;;;;;;5045321;28;87432;-36
2022/10/17 03:42:07;;;;;;;;;;;10.80;62.10;;;;;;5044822;28;88266;-36
2022/10/17 03:44:32;;;;;;;;;;;10.80;62.00;;;;;;5048524;28;87101;-36
2022/10/17 03:46:58;;;;;;;;;;;10.80;61.90;;;;;;5045079;28;87926;-36
2022/10/17 03:49:23;;;;;;;;;;;10.80;61.90;;;;;;5045590;28;86839;-36
2022/10/17 03:51:49;;;;;;;;;;;10.70;61.80;;;;;;5045594;28;86933;-36
2022/10/17 03:54:14;;;;;;;;;;;10.80;62.00;;;;;;5044885;28;88105;-37
2022/10/17 03:56:40;;;;;;;;;;;10.80;61.90;;;;;;5045160;28;86967;-36
2022/10/17 03:59:05;;;;;;;;;;;10.70;61.80;;;;;;5045843;27;87303;-36
2022/10/17 04:01:31;;;;;;;;;;;10.70;62.00;;;;;;5044920;28;87939;-36
2022/10/17 04:03:56;;;;;;;;;;;10.60;61.90;;;;;;5045210;28;87108;-36
2022/10/17 04:06:22;;;;;;;;;;;10.60;62.10;;;;;;5047384;28;87816;-36
2022/10/17 04:08:48;;;;;;;;;;;10.60;61.80;;;;;;5044922;28;87373;-36
2022/10/17 04:11:15;;;;;;;;;;;10.60;61.90;;;;;;5045159;28;87368;-36
2022/10/17 04:13:40;;;;;;;;;;;10.60;61.90;;;;;;5043624;27;88013;-36
2022/10/17 04:16:07;;;;;;;;;;;10.60;61.80;;;;;;5045051;28;87434;-37
2022/10/17 04:18:33;;;;;;;;;;;10.60;61.90;;;;;;5044984;27;87056;-36
2022/10/17 04:21:03;;;;;;;;;;;10.60;61.80;;;;;;5044635;28;88316;-36
2022/10/17 04:23:28;;;;;;;;;;;10.60;61.80;;;;;;5044768;28;86387;-36
2022/10/17 04:25:57;;;;;;;;;;;10.50;61.80;;;;;;5045165;28;87036;-36
2022/10/17 04:28:23;;;;;;;;;;;10.60;61.80;;;;;;5047281;28;87320;-36
2022/10/17 04:30:56;;;;;;;;;;;10.50;61.80;;;;;;5044294;27;87909;-36
2022/10/17 04:33:21;;;;;;;;;;;10.50;61.80;;;;;;5044569;28;88057;-36
2022/10/17 04:36:07;;;;;;;;;;;10.50;61.70;;;;;;5044801;28;87146;-36
2022/10/17 04:38:33;;;;;;;;;;;10.50;61.80;;;;;;5044140;28;87047;-37
2022/10/17 04:41:01;;;;;;;;;;;10.50;61.80;;;;;;5044515;28;88121;-36
2022/10/17 04:43:28;;;;;;;;;;;10.50;61.70;;;;;;5044545;28;87079;-36
2022/10/17 04:45:53;;;;;;;;;;;10.50;61.80;;;;;;5044678;28;87525;-35
2022/10/17 04:48:19;;;;;;;;;;;10.40;61.80;;;;;;5044816;28;87316;-36
2022/10/17 04:51:00;;;;;;;;;;;10.40;61.80;;;;;;5047352;28;87213;-36
2022/10/17 04:53:26;;;;;;;;;;;10.40;61.80;;;;;;5044129;28;88097;-36
2022/10/17 04:55:52;;;;;;;;;;;10.40;61.70;;;;;;5044019;28;88543;-36
2022/10/17 04:58:17;;;;;;;;;;;10.40;61.80;;;;;;5044219;28;88184;-37
2022/10/17 05:00:43;;;;;;;;;;;10.40;61.70;;;;;;5044126;28;87890;-36
2022/10/17 05:03:08;;;;;;;;;;;10.40;61.70;;;;;;5044250;28;87024;-36
2022/10/17 05:05:37;;;;;;;;;;;10.30;61.70;;;;;;5044402;28;87449;-36
2022/10/17 05:08:03;;;;;;;;;;;10.40;61.80;;;;;;5043617;28;88018;-36
2022/10/17 05:10:29;;;;;;;;;;;10.30;61.70;;;;;;5044348;28;86994;-36
2022/10/17 05:12:54;;;;;;;;;;;10.30;61.90;;;;;;5047314;28;87336;-36
2022/10/17 05:15:20;;;;;;;;;;;10.30;61.80;;;;;;5044157;28;87208;-36
2022/10/17 05:17:45;;;;;;;;;;;10.30;61.80;;;;;;5044272;28;87632;-36
2022/10/17 05:20:11;;;;;;;;;;;10.30;61.80;;;;;;5042983;28;90177;-36
2022/10/17 05:22:36;;;;;;;;;;;10.30;61.70;;;;;;5044090;28;87151;-36
2022/10/17 05:25:02;;;;;;;;;;;10.30;61.80;;;;;;5043206;27;87458;-36
2022/10/17 05:27:27;;;;;;;;;;;10.20;61.80;;;;;;5043616;28;88144;-36
2022/10/17 05:29:53;;;;;;;;;;;10.30;61.80;;;;;;5043988;28;87695;-36
2022/10/17 05:32:18;;;;;;;;;;;10.30;61.80;;;;;;5046473;28;87303;-36
2022/10/17 05:34:44;;;;;;;;;;;10.20;61.70;;;;;;5043708;28;87069;-37
2022/10/17 05:37:09;;;;;;;;;;;10.20;61.70;;;;;;5044401;28;87524;-36
2022/10/17 05:39:34;;;;;;;;;;;10.20;61.60;;;;;;5043501;28;88125;-36
2022/10/17 05:42:00;;;;;;;;;;;10.20;61.60;;;;;;5043641;28;87081;-36
2022/10/17 05:44:25;;;;;;;;;;;10.20;61.70;;;;;;5042992;28;87871;-36
2022/10/17 05:46:51;;;;;;;;;;;10.20;61.70;;;;;;5043284;28;88046;-36
2022/10/17 05:49:16;;;;;;;;;;;10.20;61.70;;;;;;5043638;28;87167;-36
2022/10/17 05:51:42;;;;;;;;;;;10.20;61.80;;;;;;5043577;28;87681;-36
2022/10/17 05:54:08;;;;;;;;;;;10.10;61.70;;;;;;5046154;28;88038;-36
2022/10/17 05:56:34;;;;;;;;;;;10.20;61.70;;;;;;5043377;27;87307;-36
2022/10/17 05:58:59;;;;;;;;;;;10.20;61.70;;;;;;5042864;28;87993;-36
2022/10/17 06:01:25;;;;;;;;;;;10.10;61.60;;;;;;5043837;28;86267;-36
2022/10/17 06:03:50;;;;;;;;;;;10.10;61.60;;;;;;5043267;27;87035;-36
2022/10/17 06:06:16;;;;;;;;;;;10.10;61.60;;;;;;5043144;28;87243;-36
2022/10/17 06:08:42;;;;;;;;;;;10.10;61.60;;;;;;5042847;28;88026;-36
2022/10/17 06:11:08;;;;;;;;;;;10.10;61.60;;;;;;5043318;28;88366;-36
2022/10/17 06:13:33;;;;;;;;;;;10.10;61.80;;;;;;5042942;28;88167;-36
2022/10/17 06:15:59;;;;;;;;;;;10.10;61.80;;;;;;5046108;28;87118;-36
2022/10/17 06:18:25;;;;;;;;;;;10.10;61.60;;;;;;5042628;28;88320;-36
2022/10/17 06:20:51;;;;;;;;;;;10.10;61.60;;;;;;5043210;28;87185;-36
2022/10/17 06:23:16;;;;;;;;;;;10.10;61.60;;;;;;5041094;28;90530;-36
2022/10/17 06:25:42;;;;;;;;;;;10.10;61.60;;;;;;5043406;28;87560;-36
2022/10/17 06:28:07;;;;;;;;;;;10.10;61.70;;;;;;5042932;28;86905;-36
2022/10/17 06:30:33;;;;;;;;;;;10.10;61.60;;;;;;5043045;28;86949;-36
2022/10/17 06:32:59;;;;;;;;;;;10.10;61.60;;;;;;5041910;28;89313;-36
2022/10/17 06:35:24;;;;;;;;;;;10.10;61.60;;;;;;5042022;28;87069;-36
2022/10/17 06:37:50;;;;;;;;;;;10.00;61.70;;;;;;5045528;28;87456;-36
2022/10/17 06:40:16;;;;;;;;;;;10.10;61.80;;;;;;5042974;28;87182;-36
2022/10/17 06:42:41;;;;;;;;;;;10.10;61.70;;;;;;5042862;27;87241;-36
2022/10/17 06:45:08;;;;;;;;;;;10.00;61.80;;;;;;5042554;28;88146;-36
2022/10/17 06:47:33;;;;;;;;;;;10.00;61.60;;;;;;5042572;28;87126;-36
2022/10/17 06:49:59;;;;;;;;;;;10.00;61.70;;;;;;5043233;27;87426;-36
2022/10/17 06:52:24;;;;;;;;;;;10.10;61.80;;;;;;5042428;28;88225;-36
2022/10/17 06:54:53;;;;;;;;;;;10.00;61.80;;;;;;5042782;28;87131;-36
2022/10/17 06:57:18;;;;;;;;;;;10.00;61.80;;;;;;5041924;27;87888;-36
2022/10/17 06:59:44;;;;;;;;;;;10.00;61.80;;;;;;5045280;28;87578;-36
2022/10/17 07:02:10;;;;;;;;;;;10.00;61.80;;;;;;5042716;28;87440;-36
2022/10/17 07:04:35;;;;;;;;;;;10.00;62.00;;;;;;5042046;28;87340;-36
2022/10/17 07:07:03;;;;;;;;;;;10.00;62.10;;;;;;5042553;28;87143;-36
2022/10/17 07:09:30;;;;;;;;;;;9.90;62.20;;;;;;5042890;27;87122;-36
2022/10/17 07:11:55;;;;;;;;;;;9.90;62.20;;;;;;5042070;28;87890;-36
2022/10/17 07:14:21;;;;;;;;;;;9.90;62.30;;;;;;5043020;28;86387;-36
2022/10/17 07:16:46;;;;;;;;;;;9.90;62.40;;;;;;5042463;28;87041;-36
2022/10/17 07:19:12;;;;;;;;;;;9.80;62.50;;;;;;5041943;28;88465;-36
2022/10/17 07:21:37;;;;;;;;;;;9.90;62.60;;;;;;5044805;28;88083;-36
2022/10/17 07:24:03;;;;;;;;;;;9.90;62.50;;;;;;5041391;28;88222;-36
2022/10/17 07:26:28;;;;;;;;;;;9.90;62.60;;;;;;5042448;28;87185;-36
2022/10/17 07:28:54;;;;;;;;;;;9.90;62.50;;;;;;5042402;28;87733;-36
2022/10/17 07:31:21;;;;;;;;;;;9.90;62.60;;;;;;5041979;28;88010;-36
2022/10/17 07:33:47;;;;;;;;;;;9.90;62.50;;;;;;5041893;28;87080;-36
2022/10/17 07:36:12;;;;;;;;;;;9.90;62.60;;;;;;5042146;27;87705;-36
2022/10/17 07:38:38;;;;;;;;;;;9.90;62.60;;;;;;5042187;28;86662;-36
2022/10/17 07:41:04;;;;;;;;;;;9.90;62.70;;;;;;5045207;28;87060;-36
2022/10/17 07:43:30;;;;;;;;;;;9.90;63.00;;;;;;5041526;28;87183;-36
2022/10/17 07:45:56;;;;;;;;;;;9.80;62.70;;;;;;5041406;28;88041;-36
2022/10/17 07:48:22;;;;;;;;;;;9.80;62.80;;;;;;5045104;27;88128;-36
2022/10/17 07:50:48;;;;;;;;;;;9.80;62.80;;;;;;5045309;28;88073;-36
2022/10/17 07:53:13;;;;;;;;;;;9.90;62.90;;;;;;5045535;28;87666;-36
2022/10/17 07:55:40;;;;;;;;;;;9.90;62.90;;;;;;5045694;27;87338;-35
2022/10/17 07:58:05;;;;;;;;;;;9.90;62.90;;;;;;5044649;28;88030;-36
2022/10/17 08:00:31;;;;;;;;;;;9.90;62.90;;;;;;5045315;28;86977;-36
2022/10/17 08:02:56;;;;;;;;;;;9.80;63.00;;;;;;5048337;28;87563;-36
2022/10/17 08:05:22;;;;;;;;;;;9.80;63.00;;;;;;5045289;28;87167;-36
2022/10/17 08:07:47;;;;;;;;;;;9.90;63.00;;;;;;5045603;28;87162;-36
2022/10/17 08:10:14;;;;;;;;;;;9.80;63.00;;;;;;5044235;28;88559;-36
2022/10/17 08:12:40;;;;;;;;;;;9.80;63.00;;;;;;5045171;28;87171;-35
2022/10/17 08:15:06;;;;;;;;;;;9.80;63.10;;;;;;5045268;28;86856;-36
2022/10/17 08:17:33;;;;;;;;;;;9.80;63.10;;;;;;5044783;28;87080;-36
2022/10/17 08:19:58;;;;;;;;;;;9.80;63.20;;;;;;5045253;28;87187;-36
2022/10/17 08:22:24;;;;;;;;;;;9.80;63.10;;;;;;5045108;28;87480;-36
2022/10/17 08:24:49;;;;;;;;;;;9.80;63.20;;;;;;5047422;28;88200;-36
2022/10/17 08:27:20;;;;;;;;;;;9.90;63.20;;;;;;5045425;27;87290;-35
2022/10/17 08:29:47;;;;;;;;;;;9.90;63.10;;;;;;5044769;28;87979;-35
2022/10/17 08:32:13;;;;;;;;;;;9.90;63.20;;;;;;5044626;28;87195;-36
2022/10/17 08:34:38;;;;;;;;;;;9.90;63.20;;;;;;5044249;28;88007;-36
2022/10/17 08:37:04;;;;;;;;;;;9.90;63.20;;;;;;5044406;28;88370;-36
2022/10/17 08:39:29;;;;;;;;;;;9.90;63.40;;;;;;5044782;28;87095;-36
2022/10/17 08:42:07;;;;;;;;;;;9.90;63.50;;;;;;5044952;28;86851;-36
2022/10/17 08:44:50;;;;;;;;;;;9.90;63.40;;;;;;5044352;28;87359;-36
2022/10/17 08:47:25;;;;;;;;;;;9.90;63.30;;;;;;5047667;27;87083;-36
2022/10/17 08:49:54;;;;;;;;;;;9.90;64.00;;;;;;5044378;28;87919;-37
2022/10/17 08:52:33;;;;;;;;;;;9.90;63.40;;;;;;5044808;28;86264;-36
2022/10/17 08:54:59;;;;;;;;;;;9.90;63.50;;;;;;5044752;28;86853;-36
2022/10/17 08:57:25;;;;;;;;;;;9.90;63.60;;;;;;5043651;28;87049;-35
2022/10/17 08:59:52;;;;;;;;;;;9.90;63.50;;;;;;5043079;27;87979;-36
2022/10/17 09:02:36;;;;;;;;;;;9.90;63.60;;;;;;5044435;28;88237;-36
2022/10/17 09:05:14;;;;;;;;;;;10.00;63.60;;;;;;5044151;28;87933;-36
2022/10/17 09:07:40;;;;;;;;;;;9.90;63.50;;;;;;5044110;28;87211;-36
2022/10/17 09:10:14;;;;;;;;;;;10.00;63.60;;;;;;5046802;28;87555;-36
2022/10/17 09:12:54;;;;;;;;;;;10.00;63.60;;;;;;5044489;28;87076;-36
2022/10/17 09:15:29;;;;;;;;;;;10.00;63.60;;;;;;5044428;27;87105;-36
2022/10/17 09:17:59;;;;;;;;;;;10.00;63.50;;;;;;5044275;28;87405;-36
2022/10/17 09:20:33;;;;;;;;;;;10.00;63.70;;;;;;5043795;28;87151;-36
2022/10/17 09:23:03;;;;;;;;;;;10.00;63.60;;;;;;5043899;27;88359;-36
2022/10/17 09:25:34;;;;;;;;;;;10.00;63.70;;;;;;5043382;28;88222;-36
2022/10/17 09:28:11;;;;;;;;;;;10.00;63.70;;;;;;5044021;28;87089;-37
2022/10/17 09:30:41;;;;;;;;;;;10.10;63.70;;;;;;5043898;27;86973;-35
2022/10/17 09:33:17;;;;;;;;;;;10.10;63.50;;;;;;5046425;28;88662;-36
2022/10/17 09:35:43;;;;;;;;;;;10.10;63.50;;;;;;5043918;28;87099;-36
2022/10/17 09:38:22;;;;;;;;;;;10.10;63.40;;;;;;5043581;28;87954;-35
2022/10/17 09:40:57;;;;;;;;;;;10.10;63.60;;;;;;5043694;28;86773;-36
2022/10/17 09:43:24;;;;;;;;;;;10.20;63.50;;;;;;5043749;28;87522;-36
2022/10/17 09:46:04;;;;;;;;;;;10.20;63.40;;;;;;5043307;28;87969;-36
2022/10/17 09:48:41;;;;;;;;;;;10.20;63.40;;;;;;5043913;28;86920;-36
2022/10/17 09:51:07;;;;;;;;;;;10.20;63.30;;;;;;5043055;27;87999;-36
2022/10/17 09:53:35;;;;;;;;;;;10.20;63.30;;;;;;5046337;28;87966;-36
2022/10/17 09:56:02;;;;;;;;;;;10.20;63.20;;;;;;5043537;27;87424;-36
2022/10/17 09:58:44;;;;;;;;;;;10.20;63.20;;;;;;5042910;28;88384;-36
2022/10/17 10:01:20;;;;;;;;;;;10.20;63.30;;;;;;5043264;28;87024;-36
2022/10/17 10:03:46;;;;;;;;;;;10.20;63.30;;;;;;5043470;27;87397;-36
2022/10/17 10:06:16;;;;;;;;;;;10.30;63.30;;;;;;5043043;28;88111;-36
2022/10/17 10:08:52;;;;;;;;;;;10.30;63.30;;;;;;5043594;28;86287;-36
2022/10/17 10:11:22;;;;;;;;;;;10.30;63.30;;;;;;5043151;27;86968;-36
2022/10/17 10:13:48;;;;;;;;;;;10.30;63.30;;;;;;5042722;28;88016;-36
2022/10/17 10:16:19;;;;;;;;;;;10.30;63.20;;;;;;5045660;28;87959;-36
2022/10/17 10:18:45;;;;;;;;;;;10.30;63.20;;;;;;5042910;28;87598;-36
2022/10/17 10:21:15;;;;;;;;;;;10.30;63.20;;;;;;5043541;28;88264;-35
2022/10/17 10:24:04;;;;;;;;;;;10.30;63.20;;;;;;5042831;28;87315;-36
2022/10/17 10:26:36;;;;;;;;;;;10.30;63.20;;;;;;5036724;27;87206;-35
2022/10/17 10:29:05;;;;;;;;;;;10.40;63.10;;;;;;5043194;28;86984;-36
2022/10/17 10:31:32;;;;;;;;;;;10.40;63.20;;;;;;5042808;28;87572;-36
2022/10/17 10:33:59;;;;;;;;;;;10.40;63.20;;;;;;5043174;28;87427;-36
2022/10/17 10:36:25;;;;;;;;;;;10.40;63.10;;;;;;5042841;28;87091;-36
2022/10/17 10:38:55;;;;;;;;;;;10.40;63.00;;;;;;5045585;27;87389;-36
2022/10/17 10:41:21;;;;;;;;;;;10.50;63.00;;;;;;5042105;28;88088;-35
2022/10/17 10:43:48;;;;;;;;;;;10.50;62.90;;;;;;5043010;28;88325;-36
2022/10/17 10:46:18;;;;;;;;;;;10.50;62.90;;;;;;5042226;28;88089;-36
2022/10/17 10:49:00;;;;;;;;;;;10.50;63.00;;;;;;5042760;28;87124;-36
2022/10/17 10:51:31;;;;;;;;;;;10.50;62.90;;;;;;5042905;28;87344;-37
2022/10/17 10:53:56;;;;;;;;;;;10.60;62.50;;;;;;5042420;28;87170;-36
2022/10/17 10:56:28;;;;;;;;;;;10.60;62.60;;;;;;5042454;28;87114;-36
2022/10/17 10:58:57;;;;;;;;;;;10.60;62.50;;;;;;5042659;28;86646;-36
2022/10/17 11:01:27;;;;;;;;;;;10.60;62.30;;;;;;5045090;28;88255;-35
2022/10/17 11:04:10;;;;;;;;;;;10.60;62.30;;;;;;5042677;27;87510;-36
2022/10/17 11:06:38;;;;;;;;;;;10.70;62.30;;;;;;5041756;28;87918;-36
2022/10/17 11:09:12;;;;;;;;;;;10.70;62.40;;;;;;5041966;28;87077;-37
2022/10/17 11:11:51;;;;;;;;;;;10.70;62.30;;;;;;5042682;28;87331;-36
2022/10/17 11:14:23;;;;;;;;;;;10.70;62.20;;;;;;5042258;28;88186;-36
2022/10/17 11:16:53;;;;;;;;;;;10.70;62.40;;;;;;5042454;28;87062;-36
2022/10/17 11:19:21;;;;;;;;;;;10.70;62.50;;;;;;5042250;27;87517;-36
2022/10/17 11:21:59;;;;;;;;;;;10.80;62.40;;;;;;5042696;28;88153;-36
2022/10/17 11:24:47;;;;;;;;;;;10.80;62.30;;;;;;5049218;28;87177;-36
2022/10/17 11:27:13;;;;;;;;;;;10.80;62.20;;;;;;5045430;28;87969;-35
2022/10/17 11:29:40;;;;;;;;;;;10.80;62.30;;;;;;5045984;28;86847;-36
2022/10/17 11:32:14;;;;;;;;;;;10.80;62.30;;;;;;5045120;28;89054;-36
2022/10/17 11:34:47;;;;;;;;;;;10.80;62.30;;;;;;5045398;28;88177;-36
2022/10/17 11:37:18;;;;;;;;;;;10.80;62.10;;;;;;5045865;28;87150;-36
2022/10/17 11:39:48;;;;;;;;;;;10.90;62.20;;;;;;5045592;28;86976;-36
2022/10/17 11:42:19;;;;;;;;;;;10.90;62.30;;;;;;5045294;28;88038;-36
2022/10/17 11:44:48;;;;;;;;;;;11.00;61.90;;;;;;5045426;28;86687;-36
2022/10/17 11:47:16;;;;;;;;;;;11.00;61.60;;;;;;5048003;27;87542;-36
2022/10/17 11:49:47;;;;;;;;;;;11.00;62.10;;;;;;5046013;28;86505;-36
2022/10/17 11:52:19;;;;;;;;;;;11.00;62.10;;;;;;5045757;28;86926;-37
2022/10/17 11:54:49;;;;;;;;;;;11.00;62.00;;;;;;5045137;28;87937;-36
2022/10/17 11:57:18;;;;;;;;;;;11.00;62.00;;;;;;5044642;28;87902;-36
2022/10/17 11:59:43;;;;;;;;;;;11.10;61.90;;;;;;5045363;28;87469;-37
2022/10/17 12:02:21;;;;;;;;;;;11.10;61.80;;;;;;5045171;28;87191;-36
2022/10/17 12:05:12;;;;;;;;;;;11.10;62.30;;;;;;5045361;28;87084;-36
2022/10/17 12:07:48;;;;;;;;;;;11.10;61.50;;;;;;5045280;28;87470;-36
2022/10/17 12:10:27;;;;;;;;;;;11.10;61.70;;;;;;5045718;28;87156;-36
2022/10/17 12:12:53;;;;;;;;;;;11.10;61.70;;;;;;5045055;27;87708;-36
2022/10/17 12:15:18;;;;;;;;;;;11.20;62.00;;;;;;5045221;28;87258;-36
2022/10/17 12:17:53;;;;;;;;;;;11.20;61.80;;;;;;5045394;28;86975;-36
2022/10/17 12:20:22;;;;;;;;;;;11.20;61.70;;;;;;5045248;27;86937;-36
2022/10/17 12:22:52;;;;;;;;;;;11.20;61.60;;;;;;5044102;28;89087;-37
2022/10/17 12:25:17;;;;;;;;;;;11.30;62.00;;;;;;5044800;28;87057;-36
2022/10/17 12:27:44;;;;;;;;;;;11.30;61.60;;;;;;5045179;28;87209;-36
2022/10/17 12:30:29;;;;;;;;;;;11.30;61.60;;;;;;5047874;28;88112;-36
2022/10/17 12:32:57;;;;;;;;;;;11.30;61.40;;;;;;5044289;27;87219;-36
2022/10/17 12:35:24;;;;;;;;;;;11.30;61.40;;;;;;5044062;28;88093;-36
2022/10/17 12:37:49;;;;;;;;;;;11.30;61.20;;;;;;5044808;28;87085;-37
2022/10/17 12:40:33;;;;;;;;;;;11.40;61.00;;;;;;5045256;28;87722;-36
2022/10/17 12:42:59;;;;;;;;;;;11.40;60.80;;;;;;5044318;27;88073;-37
2022/10/17 12:45:43;;;;;;;;;;;11.40;60.80;;;;;;5044664;28;87109;-36
2022/10/17 12:48:09;;;;;;;;;;;11.40;60.30;;;;;;5044177;28;87774;-36
2022/10/17 12:50:53;;;;;;;;;;;11.50;60.50;;;;;;5044459;28;87855;-36
2022/10/17 12:53:20;;;;;;;;;;;11.40;60.50;;;;;;5047536;27;86973;-36
2022/10/17 12:55:46;;;;;;;;;;;11.40;61.00;;;;;;5044012;28;87904;-37
2022/10/17 12:58:15;;;;;;;;;;;11.50;60.80;;;;;;5044437;28;87107;-36
2022/10/17 13:00:50;;;;;;;;;;;11.50;60.90;;;;;;5044579;27;87483;-36
2022/10/17 13:03:30;;;;;;;;;;;11.50;60.80;;;;;;5043932;28;88193;-36
2022/10/17 13:06:01;;;;;;;;;;;11.50;60.80;;;;;;5044794;28;86216;-36
2022/10/17 13:08:28;;;;;;;;;;;11.50;60.90;;;;;;5044235;27;86844;-36
2022/10/17 13:10:54;;;;;;;;;;;11.60;60.50;;;;;;5043910;28;87106;-36
2022/10/17 13:13:22;;;;;;;;;;;11.60;59.80;;;;;;5043673;28;88031;-36
2022/10/17 13:15:52;;;;;;;;;;;11.60;60.60;;;;;;5046842;27;88120;-36
2022/10/17 13:18:22;;;;;;;;;;;11.60;60.40;;;;;;5044297;28;87226;-36
2022/10/17 13:20:55;;;;;;;;;;;11.60;60.30;;;;;;5044002;27;87484;-36
2022/10/17 13:23:21;;;;;;;;;;;11.70;60.10;;;;;;5043299;28;88086;-36
2022/10/17 13:25:47;;;;;;;;;;;11.70;60.00;;;;;;5044156;28;87107;-36
2022/10/17 13:28:12;;;;;;;;;;;11.70;60.10;;;;;;5044061;28;87516;-36
2022/10/17 13:30:38;;;;;;;;;;;11.70;60.20;;;;;;5044154;28;87488;-36
2022/10/17 13:33:17;;;;;;;;;;;11.70;60.00;;;;;;5044008;28;87154;-37
2022/10/17 13:35:42;;;;;;;;;;;11.70;59.80;;;;;;5043950;27;86937;-36
2022/10/17 13:38:10;;;;;;;;;;;11.80;60.30;;;;;;5045772;28;88970;-36
2022/10/17 13:40:39;;;;;;;;;;;11.80;60.10;;;;;;5043716;27;87842;-37
2022/10/17 13:43:10;;;;;;;;;;;11.80;59.90;;;;;;5043194;28;87355;-37
2022/10/17 13:45:36;;;;;;;;;;;11.80;59.80;;;;;;5043518;27;86970;-36
2022/10/17 13:48:04;;;;;;;;;;;11.90;59.20;;;;;;5043494;28;87866;-36
2022/10/17 13:50:37;;;;;;;;;;;11.90;59.60;;;;;;5043275;28;87996;-36
2022/10/17 13:53:05;;;;;;;;;;;11.90;59.10;;;;;;5043469;28;87053;-36
2022/10/17 13:55:31;;;;;;;;;;;11.90;59.60;;;;;;5044078;27;87363;-36
2022/10/17 13:58:07;;;;;;;;;;;11.90;59.60;;;;;;5042838;28;88331;-36
2022/10/17 14:00:33;;;;;;;;;;;11.90;59.60;;;;;;5046157;28;87031;-36
2022/10/17 14:02:58;;;;;;;;;;;11.90;60.00;;;;;;5040892;28;90633;-36
2022/10/17 14:05:24;;;;;;;;;;;11.90;59.70;;;;;;5043442;28;86995;-36
2022/10/17 14:07:51;;;;;;;;;;;12.00;59.70;;;;;;5043465;27;87299;-36
2022/10/17 14:10:21;;;;;;;;;;;12.00;60.00;;;;;;5042995;28;87145;-37
2022/10/17 14:12:47;;;;;;;;;;;12.00;59.40;;;;;;5043160;28;87185;-37
2022/10/17 14:15:14;;;;;;;;;;;12.00;59.20;;;;;;5043070;27;87506;-37
2022/10/17 14:17:40;;;;;;;;;;;12.00;59.50;;;;;;5042767;28;87999;-37
2022/10/17 14:20:07;;;;;;;;;;;12.00;59.70;;;;;;5046536;28;86293;-36
2022/10/17 14:22:33;;;;;;;;;;;12.00;59.90;;;;;;5042925;28;87991;-36
2022/10/17 14:24:59;;;;;;;;;;;12.10;59.20;;;;;;5042629;28;86933;-36
2022/10/17 14:27:28;;;;;;;;;;;12.10;59.70;;;;;;5042649;27;87995;-37